createdAt,value
2019-05-21T00:01:43.333Z,85.60
2019-05-21T00:04:10.798Z,85.90
2019-05-21T00:06:38.266Z,86.10
2019-05-21T00:09:05.823Z,85.80
2019-05-21T00:11:33.269Z,86.20
2019-05-21T00:14:00.607Z,85.90
2019-05-21T00:16:27.978Z,86.50
2019-05-21T00:18:55.378Z,86.70
2019-05-21T00:21:22.718Z,86.70
2019-05-21T00:23:50.103Z,86.50
2019-05-21T00:26:17.507Z,86.70
2019-05-21T00:29:21.241Z,86.60
2019-05-21T00:32:35.599Z,86.50
2019-05-21T00:35:49.387Z,86.20
2019-05-21T00:38:53.403Z,86.60
2019-05-21T00:41:57.801Z,86.70
2019-05-21T00:44:25.279Z,86.70
2019-05-21T00:46:52.685Z,87.20
2019-05-21T00:49:20.083Z,87.10
2019-05-21T00:51:47.526Z,86.90
2019-05-21T00:54:14.906Z,85.80
2019-05-21T00:56:42.352Z,86.80
2019-05-21T00:59:09.841Z,86.70
2019-05-21T01:01:37.272Z,86.80
2019-05-21T01:04:04.621Z,87.40
2019-05-21T01:06:31.981Z,87.20
2019-05-21T01:08:59.421Z,87.10
2019-05-21T01:11:26.766Z,87.20
2019-05-21T01:13:54.122Z,87.10
2019-05-21T01:16:21.557Z,86.60
2019-05-21T01:18:48.910Z,87.30
2019-05-21T01:21:16.352Z,87.20
2019-05-21T01:23:43.816Z,86.90
2019-05-21T01:26:11.198Z,87.20
2019-05-21T01:28:38.614Z,88.10
2019-05-21T01:31:06.064Z,88.40
2019-05-21T01:33:33.399Z,87.50
2019-05-21T01:36:00.746Z,88.40
2019-05-21T01:38:28.122Z,88.50
2019-05-21T01:40:55.469Z,87.30
2019-05-21T01:43:22.813Z,87.20
2019-05-21T01:45:50.114Z,87.00
2019-05-21T01:48:17.471Z,87.50
2019-05-21T01:50:44.839Z,86.80
2019-05-21T01:53:12.265Z,86.60
2019-05-21T01:55:39.602Z,87.50
2019-05-21T01:58:06.954Z,87.20
2019-05-21T02:00:34.297Z,87.40
2019-05-21T02:03:01.695Z,87.60
2019-05-21T02:05:33.184Z,86.80
2019-05-21T02:07:58.787Z,86.20
2019-05-21T02:10:26.242Z,86.70
2019-05-21T02:12:53.562Z,87.10
2019-05-21T02:15:20.889Z,87.00
2019-05-21T02:17:48.202Z,86.90
2019-05-21T02:20:15.839Z,87.90
2019-05-21T02:22:43.255Z,87.00
2019-05-21T02:25:11.020Z,86.50
2019-05-21T02:27:38.465Z,87.60
2019-05-21T02:30:08.527Z,87.30
2019-05-21T02:32:36.471Z,87.60
2019-05-21T02:35:04.747Z,86.90
2019-05-21T02:37:32.182Z,86.50
2019-05-21T02:39:59.745Z,87.60
2019-05-21T02:42:27.117Z,87.60
2019-05-21T02:44:54.806Z,86.60
2019-05-21T02:47:22.443Z,87.10
2019-05-21T02:49:49.835Z,87.90
2019-05-21T02:52:17.260Z,87.60
2019-05-21T02:54:44.561Z,87.10
2019-05-21T02:57:12.025Z,87.80
2019-05-21T02:59:40.440Z,87.00
2019-05-21T03:02:17.659Z,86.90
2019-05-21T03:04:44.990Z,86.60
2019-05-21T03:07:18.094Z,87.10
2019-05-21T03:09:46.873Z,87.50
2019-05-21T03:12:14.514Z,86.70
2019-05-21T03:14:41.865Z,87.00
2019-05-21T03:17:09.229Z,86.70
2019-05-21T03:19:36.697Z,87.00
2019-05-21T03:22:04.153Z,87.50
2019-05-21T03:24:31.671Z,87.00
2019-05-21T03:26:59.168Z,87.50
2019-05-21T03:29:26.628Z,87.00
2019-05-21T03:31:54.117Z,87.30
2019-05-21T03:34:21.565Z,87.20
2019-05-21T03:36:49.007Z,87.40
2019-05-21T03:39:19.226Z,86.90
2019-05-21T03:41:45.587Z,86.80
2019-05-21T03:44:12.937Z,86.60
2019-05-21T03:46:40.261Z,86.00
2019-05-21T03:49:07.770Z,85.20
2019-05-21T03:51:35.228Z,86.70
2019-05-21T03:54:02.735Z,85.60
2019-05-21T03:56:30.220Z,86.20
2019-05-21T03:58:57.710Z,85.80
2019-05-21T04:01:25.208Z,85.10
2019-05-21T04:03:52.708Z,85.20
2019-05-21T04:06:20.209Z,84.90
2019-05-21T04:08:47.674Z,86.10
2019-05-21T04:11:15.119Z,85.90
2019-05-21T04:13:42.525Z,85.00
2019-05-21T04:16:25.141Z,85.90
2019-05-21T04:18:59.340Z,85.50
2019-05-21T04:21:26.819Z,85.80
2019-05-21T04:23:54.294Z,85.60
2019-05-21T04:26:21.850Z,85.20
2019-05-21T04:28:49.207Z,84.70
2019-05-21T04:31:16.659Z,85.40
2019-05-21T04:33:44.127Z,85.40
2019-05-21T04:36:11.583Z,85.00
2019-05-21T04:38:38.998Z,85.50
2019-05-21T04:41:06.417Z,85.90
2019-05-21T04:43:33.822Z,85.80
2019-05-21T04:46:01.201Z,85.60
2019-05-21T04:48:28.929Z,85.20
2019-05-21T04:50:56.436Z,86.00
2019-05-21T04:53:23.857Z,85.70
2019-05-21T04:55:51.292Z,86.50
2019-05-21T04:58:18.715Z,87.00
2019-05-21T05:00:46.184Z,86.10
2019-05-21T05:03:13.635Z,86.30
2019-05-21T05:05:41.016Z,85.90
2019-05-21T05:08:08.478Z,85.90
2019-05-21T05:10:35.894Z,86.00
2019-05-21T05:13:03.366Z,85.50
2019-05-21T05:15:30.946Z,84.90
2019-05-21T05:17:58.416Z,86.20
2019-05-21T05:20:25.966Z,86.20
2019-05-21T05:22:53.458Z,86.80
2019-05-21T05:25:20.888Z,87.10
2019-05-21T05:27:48.384Z,87.00
2019-05-21T05:30:16.039Z,86.60
2019-05-21T05:32:43.497Z,87.30
2019-05-21T05:35:11.267Z,87.00
2019-05-21T05:37:44.193Z,86.20
2019-05-21T05:40:08.393Z,86.40
2019-05-21T05:42:35.859Z,87.30
2019-05-21T05:45:03.595Z,86.80
2019-05-21T05:47:31.017Z,87.50
2019-05-21T05:50:00.185Z,87.30
2019-05-21T05:52:27.462Z,87.50
2019-05-21T05:54:54.939Z,87.70
2019-05-21T05:57:22.461Z,88.20
2019-05-21T05:59:49.933Z,88.10
2019-05-21T06:02:17.392Z,88.10
2019-05-21T06:04:44.891Z,88.50
2019-05-21T06:07:12.345Z,88.90
2019-05-21T06:09:39.727Z,88.20
2019-05-21T06:12:07.143Z,87.80
2019-05-21T06:14:34.599Z,87.90
2019-05-21T06:17:02.348Z,88.20
2019-05-21T06:19:30.121Z,88.30
2019-05-21T06:21:57.501Z,87.90
2019-05-21T06:24:24.991Z,88.40
2019-05-21T06:26:52.401Z,89.20
2019-05-21T06:29:19.795Z,90.00
2019-05-21T06:31:47.170Z,89.40
2019-05-21T06:34:14.542Z,89.00
2019-05-21T06:36:42.072Z,89.70
2019-05-21T06:39:09.498Z,89.60
2019-05-21T06:41:36.893Z,89.00
2019-05-21T06:44:04.399Z,89.40
2019-05-21T06:46:31.908Z,90.00
2019-05-21T06:48:59.367Z,90.40
2019-05-21T06:51:26.868Z,88.80
2019-05-21T06:53:54.320Z,89.10
2019-05-21T06:56:21.822Z,89.50
2019-05-21T06:58:49.294Z,89.90
2019-05-21T07:01:16.716Z,90.20
2019-05-21T07:03:44.149Z,88.70
2019-05-21T07:06:12.317Z,89.00
2019-05-21T07:08:39.701Z,89.70
2019-05-21T07:11:07.257Z,89.40
2019-05-21T07:13:34.662Z,90.50
2019-05-21T07:16:02.135Z,88.90
2019-05-21T07:18:29.603Z,89.90
2019-05-21T07:20:57.027Z,89.80
2019-05-21T07:23:24.357Z,89.20
2019-05-21T07:25:51.802Z,90.20
2019-05-21T07:28:19.280Z,91.70
2019-05-21T07:30:46.699Z,91.60
2019-05-21T07:33:14.220Z,91.10
2019-05-21T07:35:41.650Z,91.30
2019-05-21T07:38:09.067Z,91.50
2019-05-21T07:40:36.537Z,91.30
2019-05-21T07:43:03.902Z,90.60
2019-05-21T07:45:31.319Z,91.30
2019-05-21T07:47:58.776Z,91.50
2019-05-21T07:50:26.250Z,91.40
2019-05-21T07:52:53.774Z,90.90
2019-05-21T07:55:21.250Z,90.80
2019-05-21T07:57:48.695Z,90.50
2019-05-21T08:00:17.016Z,92.10
2019-05-21T08:02:44.417Z,91.50
2019-05-21T08:05:11.816Z,93.00
2019-05-21T08:07:39.310Z,92.90
2019-05-21T08:10:07.495Z,93.10
2019-05-21T08:12:39.353Z,93.20
2019-05-21T08:15:05.027Z,93.20
2019-05-21T08:17:32.374Z,93.70
2019-05-21T08:20:08.543Z,93.80
2019-05-21T08:22:28.943Z,93.50
2019-05-21T08:24:56.295Z,94.30
2019-05-21T08:27:23.664Z,94.40
2019-05-21T08:29:51.045Z,94.40
2019-05-21T08:32:18.485Z,94.80
2019-05-21T08:34:45.890Z,95.00
2019-05-21T08:37:13.382Z,94.40
2019-05-21T08:39:40.881Z,93.50
2019-05-21T08:42:08.370Z,94.50
2019-05-21T08:44:35.791Z,94.40
2019-05-21T08:47:03.316Z,93.60
2019-05-21T08:49:30.738Z,93.90
2019-05-21T08:51:58.150Z,93.80
2019-05-21T08:54:43.678Z,94.70
2019-05-21T08:57:11.154Z,94.30
2019-05-21T08:59:38.522Z,94.30
2019-05-21T09:02:05.978Z,94.20
2019-05-21T09:04:45.862Z,94.50
2019-05-21T09:07:02.704Z,94.20
2019-05-21T09:09:48.439Z,95.40
2019-05-21T09:11:59.479Z,94.70
2019-05-21T09:14:26.921Z,95.10
2019-05-21T09:16:54.355Z,94.90
2019-05-21T09:19:21.782Z,94.30
2019-05-21T09:21:49.203Z,93.80
2019-05-21T09:24:16.639Z,93.30
2019-05-21T09:26:43.998Z,93.80
2019-05-21T09:29:11.348Z,94.10
2019-05-21T09:31:38.849Z,93.50
2019-05-21T09:34:06.259Z,93.60
2019-05-21T09:36:33.662Z,94.00
2019-05-21T09:39:01.134Z,94.10
2019-05-21T09:41:28.471Z,93.90
2019-05-21T09:43:55.803Z,94.60
2019-05-21T09:46:23.276Z,93.60
2019-05-21T09:48:50.607Z,93.80
2019-05-21T09:51:20.030Z,94.20
2019-05-21T09:53:47.253Z,94.50
2019-05-21T09:56:33.651Z,94.70
2019-05-21T09:59:21.882Z,94.80
2019-05-21T10:01:51.023Z,94.00
2019-05-21T10:04:18.473Z,94.10
2019-05-21T10:06:45.932Z,94.70
2019-05-21T10:09:19.002Z,94.70
2019-05-21T10:11:47.351Z,94.80
2019-05-21T10:14:14.865Z,94.40
2019-05-21T10:16:42.296Z,94.50
2019-05-21T10:19:09.744Z,94.70
2019-05-21T10:21:37.155Z,95.20
2019-05-21T10:24:04.660Z,94.80
2019-05-21T10:26:32.129Z,94.90
2019-05-21T10:28:59.609Z,95.70
2019-05-21T10:31:26.934Z,94.50
2019-05-21T10:33:54.426Z,94.30
2019-05-21T10:36:21.815Z,94.90
2019-05-21T10:38:49.227Z,95.10
2019-05-21T10:41:16.693Z,94.50
2019-05-21T10:43:44.163Z,94.60
2019-05-21T10:46:11.653Z,94.70
2019-05-21T10:48:39.074Z,95.40
2019-05-21T10:51:06.529Z,95.10
2019-05-21T10:53:33.996Z,95.00
2019-05-21T10:56:01.445Z,94.50
2019-05-21T10:58:28.989Z,95.00
2019-05-21T11:01:03.071Z,95.10
2019-05-21T11:03:48.596Z,94.70
2019-05-21T11:06:16.515Z,94.90
2019-05-21T11:08:43.944Z,94.60
2019-05-21T11:11:11.455Z,94.60
2019-05-21T11:13:38.824Z,93.70
2019-05-21T11:16:06.336Z,93.30
2019-05-21T11:18:33.839Z,94.20
2019-05-21T11:21:01.212Z,93.20
2019-05-21T11:23:30.626Z,93.00
2019-05-21T11:25:58.522Z,91.90
2019-05-21T11:28:25.919Z,92.70
2019-05-21T11:30:53.446Z,91.50
2019-05-21T11:33:20.982Z,92.40
2019-05-21T11:35:48.430Z,92.60
2019-05-21T11:38:15.820Z,92.90
2019-05-21T11:40:43.191Z,92.20
2019-05-21T11:43:10.949Z,92.70
2019-05-21T11:45:38.410Z,93.50
2019-05-21T11:48:05.916Z,92.90
2019-05-21T11:50:34.540Z,92.00
2019-05-21T11:53:01.990Z,92.30
2019-05-21T11:55:29.440Z,92.60
2019-05-21T11:57:57.124Z,92.00
2019-05-21T12:00:26.010Z,91.60
2019-05-21T12:02:53.592Z,92.30
2019-05-21T12:05:21.080Z,91.00
2019-05-21T12:07:48.577Z,92.20
2019-05-21T12:10:16.140Z,92.20
2019-05-21T12:12:43.728Z,90.80
2019-05-21T12:15:11.428Z,91.60
2019-05-21T12:17:38.874Z,92.60
2019-05-21T12:20:08.766Z,92.20
2019-05-21T12:22:36.221Z,92.20
2019-05-21T12:25:04.716Z,92.00
2019-05-21T12:27:35.261Z,92.40
2019-05-21T12:30:03.167Z,91.40
2019-05-21T12:32:30.487Z,92.30
2019-05-21T12:34:57.940Z,93.10
2019-05-21T12:37:25.406Z,92.50
2019-05-21T12:39:52.899Z,91.80
2019-05-21T12:42:20.338Z,91.40
2019-05-21T12:44:49.066Z,90.90
2019-05-21T12:47:16.496Z,91.70
2019-05-21T12:49:43.855Z,92.90
2019-05-21T12:52:11.394Z,92.00
2019-05-21T12:54:38.936Z,91.70
2019-05-21T12:57:06.370Z,91.90
2019-05-21T12:59:37.194Z,90.60
2019-05-21T13:02:04.549Z,90.00
2019-05-21T13:04:31.965Z,90.40
2019-05-21T13:06:59.436Z,89.40
2019-05-21T13:09:32.604Z,90.00
2019-05-21T13:11:56.347Z,90.10
2019-05-21T13:14:23.781Z,90.30
2019-05-21T13:16:51.259Z,88.50
2019-05-21T13:19:18.894Z,87.90
2019-05-21T13:21:46.285Z,89.20
2019-05-21T13:24:13.692Z,88.20
2019-05-21T13:26:41.154Z,88.70
2019-05-21T13:29:08.465Z,88.70
2019-05-21T13:31:35.817Z,88.00
2019-05-21T13:34:03.258Z,89.60
2019-05-21T13:36:30.659Z,88.70
2019-05-21T13:38:58.092Z,89.20
2019-05-21T13:41:25.560Z,89.30
2019-05-21T13:43:52.917Z,88.90
2019-05-21T13:46:20.394Z,88.40
2019-05-21T13:48:47.957Z,88.20
2019-05-21T13:51:15.434Z,87.80
2019-05-21T13:53:42.917Z,88.70
2019-05-21T13:56:10.430Z,89.00
2019-05-21T13:58:38.155Z,88.80
2019-05-21T14:01:05.731Z,88.40
2019-05-21T14:03:33.861Z,87.90
2019-05-21T14:06:01.456Z,87.40
2019-05-21T14:08:28.935Z,88.00
2019-05-21T14:10:56.521Z,87.60
2019-05-21T14:13:24.071Z,87.70
2019-05-21T14:15:51.618Z,88.20
2019-05-21T14:18:19.277Z,88.50
2019-05-21T14:20:46.751Z,87.80
2019-05-21T14:23:14.189Z,87.80
2019-05-21T14:25:41.630Z,87.30
2019-05-21T14:28:09.133Z,87.50
2019-05-21T14:30:36.682Z,88.40
2019-05-21T14:33:04.167Z,88.30
2019-05-21T14:35:31.730Z,88.50
2019-05-21T14:37:59.251Z,88.10
2019-05-21T14:40:32.383Z,87.80
2019-05-21T14:43:00.105Z,87.80
2019-05-21T14:45:31.126Z,87.50
2019-05-21T14:47:55.409Z,87.40
2019-05-21T14:50:23.523Z,87.80
2019-05-21T14:52:52.291Z,87.30
2019-05-21T14:55:20.008Z,87.10
2019-05-21T14:57:47.492Z,88.30
2019-05-21T15:00:25.708Z,87.40
2019-05-21T15:02:53.182Z,88.60
2019-05-21T15:05:20.741Z,88.60
2019-05-21T15:07:49.777Z,87.60
2019-05-21T15:10:17.762Z,88.10
2019-05-21T15:12:45.217Z,88.20
2019-05-21T15:15:12.972Z,87.00
2019-05-21T15:17:40.519Z,87.20
2019-05-21T15:20:14.084Z,87.80
2019-05-21T15:22:41.510Z,87.50
2019-05-21T15:25:09.103Z,86.90
2019-05-21T15:27:36.501Z,87.90
2019-05-21T15:30:04.253Z,87.40
2019-05-21T15:32:31.767Z,87.40
2019-05-21T15:34:59.264Z,85.80
2019-05-21T15:37:26.796Z,86.20
2019-05-21T15:40:13.805Z,86.20
2019-05-21T15:42:41.319Z,85.80
2019-05-21T15:45:09.304Z,85.20
2019-05-21T15:47:36.775Z,86.90
2019-05-21T15:50:04.533Z,87.40
2019-05-21T15:52:32.045Z,86.30
2019-05-21T15:54:59.526Z,86.40
2019-05-21T15:57:26.973Z,86.00
2019-05-21T15:59:54.540Z,85.40
2019-05-21T16:02:22.098Z,85.70
2019-05-21T16:04:49.619Z,86.40
2019-05-21T16:07:17.192Z,85.70
2019-05-21T16:09:44.820Z,86.00
2019-05-21T16:12:12.372Z,86.40
2019-05-21T16:14:40.422Z,86.90
2019-05-21T16:17:07.956Z,86.60
2019-05-21T16:19:36.367Z,86.50
2019-05-21T16:22:03.836Z,87.60
2019-05-21T16:24:31.485Z,87.40
2019-05-21T16:26:59.031Z,86.40
2019-05-21T16:29:26.527Z,86.50
2019-05-21T16:31:54.046Z,86.40
2019-05-21T16:34:21.644Z,85.20
2019-05-21T16:36:49.086Z,86.30
2019-05-21T16:39:16.700Z,86.60
2019-05-21T16:41:45.497Z,85.90
2019-05-21T16:44:13.301Z,85.80
2019-05-21T16:46:42.714Z,85.20
2019-05-21T16:49:10.222Z,86.40
2019-05-21T16:51:37.832Z,86.50
2019-05-21T16:54:05.315Z,85.90
2019-05-21T16:56:33.415Z,86.40
2019-05-21T16:59:01.054Z,86.40
2019-05-21T17:01:28.799Z,86.60
2019-05-21T17:04:00.047Z,87.30
2019-05-21T17:06:25.612Z,87.50
2019-05-21T17:08:53.495Z,87.80
2019-05-21T17:11:20.999Z,87.80
2019-05-21T17:13:48.465Z,88.40
2019-05-21T17:16:16.153Z,88.10
2019-05-21T17:18:43.692Z,86.20
2019-05-21T17:21:11.264Z,87.10
2019-05-21T17:23:38.859Z,87.50
2019-05-21T17:26:06.788Z,87.60
2019-05-21T17:28:34.453Z,88.00
2019-05-21T17:31:02.168Z,87.00
2019-05-21T17:33:29.734Z,88.20
2019-05-21T17:35:57.532Z,87.10
2019-05-21T17:38:25.326Z,88.30
2019-05-21T17:40:53.009Z,87.90
2019-05-21T17:43:21.178Z,87.70
2019-05-21T17:45:48.697Z,86.70
2019-05-21T17:48:16.270Z,87.50
2019-05-21T17:50:44.679Z,88.10
2019-05-21T17:53:12.261Z,87.80
2019-05-21T17:55:40.115Z,88.00
2019-05-21T17:58:07.872Z,87.60
2019-05-21T18:00:51.074Z,88.10
2019-05-21T18:03:19.346Z,87.20
2019-05-21T18:05:47.546Z,87.10
2019-05-21T18:08:17.232Z,86.90
2019-05-21T18:10:45.561Z,87.80
2019-05-21T18:13:14.017Z,87.00
2019-05-21T18:15:42.117Z,87.80
2019-05-21T18:18:10.803Z,88.20
2019-05-21T18:20:39.461Z,87.50
2019-05-21T18:23:07.605Z,87.30
2019-05-21T18:25:35.414Z,86.90
2019-05-21T18:28:02.956Z,86.90
2019-05-21T18:30:33.505Z,87.50
2019-05-21T18:33:01.653Z,86.90
2019-05-21T18:35:29.579Z,87.20
2019-05-21T18:37:57.494Z,86.90
2019-05-21T18:40:25.888Z,86.00
2019-05-21T18:42:54.153Z,87.30
2019-05-21T18:45:22.130Z,87.90
2019-05-21T18:47:50.720Z,87.60
2019-05-21T18:50:33.329Z,87.10
2019-05-21T18:52:49.767Z,87.60
2019-05-21T18:55:18.614Z,88.00
2019-05-21T18:57:46.749Z,88.40
2019-05-21T19:00:15.540Z,87.50
2019-05-21T19:02:43.793Z,87.80
2019-05-21T19:05:11.675Z,88.20
2019-05-21T19:07:39.822Z,88.40
2019-05-21T19:10:08.812Z,88.40
2019-05-21T19:12:38.507Z,88.40
2019-05-21T19:15:06.478Z,88.10
2019-05-21T19:17:35.791Z,88.80
2019-05-21T19:20:06.265Z,88.30
2019-05-21T19:22:33.987Z,89.90
2019-05-21T19:25:01.947Z,88.80
2019-05-21T19:27:29.605Z,89.20
2019-05-21T19:29:57.199Z,88.60
2019-05-21T19:32:24.808Z,88.70
2019-05-21T19:34:52.495Z,88.50
2019-05-21T19:37:20.048Z,87.10
2019-05-21T19:39:48.575Z,87.70
2019-05-21T19:42:16.533Z,88.10
2019-05-21T19:44:44.323Z,87.40
2019-05-21T19:47:12.003Z,87.70
2019-05-21T19:49:39.868Z,87.80
2019-05-21T19:52:07.493Z,87.60
2019-05-21T19:54:35.197Z,88.00
2019-05-21T19:57:04.065Z,88.20
2019-05-21T19:59:31.653Z,87.80
2019-05-21T20:01:59.577Z,87.20
2019-05-21T20:04:27.564Z,87.50
2019-05-21T20:06:55.150Z,87.50
2019-05-21T20:09:26.838Z,87.30
2019-05-21T20:11:53.725Z,86.80
2019-05-21T20:14:21.226Z,87.00
2019-05-21T20:16:48.898Z,87.50
2019-05-21T20:19:20.924Z,87.30
2019-05-21T20:21:49.262Z,86.90
2019-05-21T20:24:17.341Z,86.60
2019-05-21T20:26:45.533Z,87.80
2019-05-21T20:29:13.320Z,87.90
2019-05-21T20:31:41.077Z,87.30
2019-05-21T20:34:09.871Z,87.90
2019-05-21T20:36:40.605Z,88.30
2019-05-21T20:39:11.807Z,88.10
2019-05-21T20:41:40.135Z,87.90
2019-05-21T20:44:09.503Z,88.20
2019-05-21T20:46:37.679Z,87.70
2019-05-21T20:49:05.792Z,87.70
2019-05-21T20:51:33.504Z,88.00
2019-05-21T20:54:01.515Z,88.50
2019-05-21T20:56:29.295Z,88.50
2019-05-21T20:58:56.760Z,88.20
2019-05-21T21:01:24.766Z,88.10
2019-05-21T21:03:52.218Z,87.80
2019-05-21T21:06:34.126Z,88.20
2019-05-21T21:08:49.298Z,88.20
2019-05-21T21:11:17.473Z,87.60
2019-05-21T21:13:45.719Z,87.60
2019-05-21T21:16:13.189Z,88.20
2019-05-21T21:18:40.758Z,88.30
2019-05-21T21:21:08.208Z,88.60
2019-05-21T21:23:35.727Z,88.00
2019-05-21T21:26:04.214Z,87.80
2019-05-21T21:28:31.543Z,87.80
2019-05-21T21:30:59.519Z,88.10
2019-05-21T21:33:26.980Z,87.50
2019-05-21T21:35:54.341Z,87.70
2019-05-21T21:38:25.412Z,87.60
2019-05-21T21:40:52.898Z,87.90
2019-05-21T21:43:20.894Z,87.50
2019-05-21T21:45:48.946Z,88.00
2019-05-21T21:48:16.286Z,88.10
2019-05-21T21:50:44.483Z,87.60
2019-05-21T21:53:12.061Z,86.70
2019-05-21T21:55:39.494Z,86.90
2019-05-21T21:58:06.859Z,87.00
2019-05-21T22:01:20.247Z,88.10
2019-05-21T22:03:48.404Z,88.10
2019-05-21T22:06:17.621Z,87.10
2019-05-21T22:08:45.566Z,87.00
2019-05-21T22:11:13.037Z,87.50
2019-05-21T22:13:40.366Z,88.40
2019-05-21T22:16:08.007Z,88.30
2019-05-21T22:18:35.451Z,88.40
2019-05-21T22:21:03.563Z,88.00
2019-05-21T22:23:31.024Z,87.80
2019-05-21T22:25:58.407Z,87.50
2019-05-21T22:28:25.822Z,87.00
2019-05-21T22:30:53.159Z,87.60
2019-05-21T22:33:20.513Z,87.50
2019-05-21T22:35:47.851Z,88.10
2019-05-21T22:38:15.307Z,87.70
2019-05-21T22:40:42.863Z,87.60
2019-05-21T22:43:11.043Z,87.60
2019-05-21T22:45:38.536Z,88.50
2019-05-21T22:48:06.151Z,88.90
2019-05-21T22:50:33.527Z,87.90
2019-05-21T22:53:01.094Z,87.60
2019-05-21T22:55:28.408Z,87.90
2019-05-21T22:57:55.775Z,87.90
2019-05-21T23:00:23.486Z,87.90
2019-05-21T23:02:51.025Z,87.40
2019-05-21T23:05:22.725Z,86.40
2019-05-21T23:07:48.118Z,87.60
2019-05-21T23:10:16.179Z,87.20
2019-05-21T23:12:43.645Z,87.50
2019-05-21T23:15:24.293Z,87.40
2019-05-21T23:17:42.590Z,87.30
2019-05-21T23:20:12.801Z,87.20
2019-05-21T23:22:40.394Z,87.50
2019-05-21T23:25:08.147Z,88.00
2019-05-21T23:27:36.675Z,88.20
2019-05-21T23:30:05.078Z,88.10
2019-05-21T23:32:33.307Z,88.50
2019-05-21T23:35:01.543Z,88.20
2019-05-21T23:37:30.821Z,88.60
2019-05-21T23:39:58.215Z,89.00
2019-05-21T23:42:30.074Z,89.20
2019-05-21T23:44:55.117Z,88.90
2019-05-21T23:47:22.544Z,88.70
2019-05-21T23:49:50.401Z,88.90
2019-05-21T23:52:18.037Z,88.90
2019-05-21T23:54:45.469Z,89.10
2019-05-21T23:57:19.990Z,89.40
2019-05-21T23:59:47.419Z,89.10
